CQH008 RJOA-RJFF
Flight info
| Callsign | CQH008 |
|---|---|
| Flight time | 0h 34m |
| Altitude | 28000 |
| Route | MARCO2 MARCO Y256 STOUT Y20 KIRIN KIRINE |
| Aircraft | A320/M-SDE3FGHIRWY/LB1 |
Departure
| Time | 2026-05-07 14:44 |
|---|---|
| Airport | Hiroshima Airport (RJOA) |
Arrival
| Time | 2026-05-07 15:19 |
|---|---|
| Airport | Fukuoka Airport (RJFF) |
| Time | Latitude | Longitude | Altitude | Speed | Heading |
|---|---|---|---|---|---|
| 2026-05-07 14:44 | 34.34690 | 132.67648 | 10751 ft | 308 kts | 235° |
| 2026-05-07 14:44 | 34.33424 | 132.65454 | 11165 ft | 325 kts | 235° |
| 2026-05-07 14:45 | 34.32124 | 132.63185 | 11873 ft | 331 kts | 236° |
| 2026-05-07 14:45 | 34.30808 | 132.60880 | 12613 ft | 335 kts | 236° |
| 2026-05-07 14:45 | 34.29481 | 132.58560 | 13412 ft | 337 kts | 236° |
| 2026-05-07 14:45 | 34.28140 | 132.56221 | 14115 ft | 340 kts | 236° |
| 2026-05-07 14:46 | 34.26786 | 132.53863 | 14766 ft | 343 kts | 236° |
| 2026-05-07 14:46 | 34.25431 | 132.51511 | 15448 ft | 345 kts | 236° |
| 2026-05-07 14:46 | 34.24060 | 132.49131 | 16117 ft | 348 kts | 236° |
| 2026-05-07 14:46 | 34.22676 | 132.46720 | 16786 ft | 350 kts | 238° |
| 2026-05-07 14:47 | 34.21456 | 132.44161 | 17423 ft | 353 kts | 242° |
| 2026-05-07 14:47 | 34.20271 | 132.41553 | 18082 ft | 355 kts | 242° |
| 2026-05-07 14:47 | 34.19074 | 132.38928 | 18664 ft | 358 kts | 242° |
| 2026-05-07 14:47 | 34.17867 | 132.36286 | 19210 ft | 361 kts | 242° |
| 2026-05-07 14:48 | 34.16649 | 132.33625 | 19734 ft | 364 kts | 242° |
| 2026-05-07 14:48 | 34.15418 | 132.30944 | 20262 ft | 367 kts | 242° |
| 2026-05-07 14:48 | 34.14173 | 132.28243 | 20785 ft | 370 kts | 242° |
| 2026-05-07 14:48 | 34.12938 | 132.25559 | 21290 ft | 372 kts | 242° |
| 2026-05-07 14:49 | 34.11675 | 132.22818 | 21810 ft | 375 kts | 242° |
| 2026-05-07 14:49 | 34.10400 | 132.20055 | 22311 ft | 378 kts | 242° |
| 2026-05-07 14:49 | 34.09234 | 132.17201 | 22792 ft | 380 kts | 250° |
| 2026-05-07 14:49 | 34.08533 | 132.14120 | 23273 ft | 383 kts | 260° |
| 2026-05-07 14:50 | 34.08367 | 132.10897 | 23723 ft | 388 kts | 271° |
| 2026-05-07 14:50 | 34.08673 | 132.07648 | 24138 ft | 391 kts | 276° |
| 2026-05-07 14:50 | 34.09025 | 132.04385 | 24547 ft | 394 kts | 275° |
| 2026-05-07 14:50 | 34.09367 | 132.01095 | 24949 ft | 396 kts | 275° |
| 2026-05-07 14:51 | 34.09698 | 131.97824 | 25362 ft | 399 kts | 275° |
| 2026-05-07 14:51 | 34.10028 | 131.94497 | 25791 ft | 401 kts | 275° |
| 2026-05-07 14:51 | 34.10361 | 131.91146 | 26186 ft | 403 kts | 275° |
| 2026-05-07 14:51 | 34.10695 | 131.87776 | 26572 ft | 406 kts | 275° |
| 2026-05-07 14:52 | 34.11033 | 131.84386 | 26962 ft | 408 kts | 275° |
| 2026-05-07 14:52 | 34.11375 | 131.80978 | 27197 ft | 409 kts | 275° |
| 2026-05-07 14:52 | 34.11720 | 131.77561 | 27447 ft | 411 kts | 275° |
| 2026-05-07 14:52 | 34.12064 | 131.74134 | 27703 ft | 412 kts | 274° |
| 2026-05-07 14:53 | 34.12406 | 131.70690 | 27914 ft | 414 kts | 274° |
| 2026-05-07 14:53 | 34.12746 | 131.67248 | 27977 ft | 411 kts | 274° |
| 2026-05-07 14:53 | 34.13079 | 131.63901 | 27560 ft | 405 kts | 274° |
| 2026-05-07 14:53 | 34.13414 | 131.60538 | 26873 ft | 402 kts | 274° |
| 2026-05-07 14:54 | 34.13746 | 131.57202 | 26267 ft | 398 kts | 274° |
| 2026-05-07 14:54 | 34.14073 | 131.53904 | 25706 ft | 394 kts | 274° |
| 2026-05-07 14:54 | 34.14394 | 131.50642 | 25149 ft | 389 kts | 274° |
| 2026-05-07 14:54 | 34.14710 | 131.47414 | 24595 ft | 385 kts | 274° |
| 2026-05-07 14:55 | 34.15022 | 131.44217 | 24040 ft | 381 kts | 274° |
| 2026-05-07 14:55 | 34.15326 | 131.41057 | 23493 ft | 378 kts | 274° |
| 2026-05-07 14:55 | 34.15625 | 131.37922 | 22842 ft | 374 kts | 274° |
| 2026-05-07 14:55 | 34.15923 | 131.34816 | 22258 ft | 371 kts | 274° |
| 2026-05-07 14:56 | 34.16219 | 131.31741 | 21710 ft | 367 kts | 274° |
| 2026-05-07 14:56 | 34.16507 | 131.28739 | 21169 ft | 363 kts | 274° |
| 2026-05-07 14:56 | 34.16796 | 131.25723 | 20595 ft | 360 kts | 274° |
| 2026-05-07 14:56 | 34.17081 | 131.22727 | 20120 ft | 358 kts | 274° |
| 2026-05-07 14:57 | 34.17363 | 131.19744 | 19785 ft | 357 kts | 274° |
| 2026-05-07 14:57 | 34.17646 | 131.16769 | 19429 ft | 356 kts | 274° |
| 2026-05-07 14:57 | 34.17927 | 131.13810 | 19085 ft | 354 kts | 274° |
| 2026-05-07 14:57 | 34.18206 | 131.10864 | 18747 ft | 352 kts | 274° |
| 2026-05-07 14:58 | 34.18482 | 131.07935 | 18409 ft | 350 kts | 274° |
| 2026-05-07 14:58 | 34.18753 | 131.05019 | 18055 ft | 348 kts | 273° |
| 2026-05-07 14:58 | 34.18741 | 131.02152 | 17951 ft | 346 kts | 261° |
| 2026-05-07 14:58 | 34.18214 | 130.99324 | 17964 ft | 346 kts | 251° |
| 2026-05-07 14:59 | 34.17298 | 130.96636 | 17963 ft | 346 kts | 247° |
| 2026-05-07 14:59 | 34.16349 | 130.93965 | 17962 ft | 346 kts | 247° |
| 2026-05-07 14:59 | 34.15399 | 130.91298 | 17966 ft | 346 kts | 247° |
| 2026-05-07 14:59 | 34.14436 | 130.88636 | 17954 ft | 345 kts | 245° |
| 2026-05-07 15:00 | 34.13313 | 130.86099 | 17531 ft | 341 kts | 242° |
| 2026-05-07 15:00 | 34.12152 | 130.83610 | 16991 ft | 339 kts | 242° |
| 2026-05-07 15:00 | 34.10998 | 130.81132 | 16477 ft | 337 kts | 242° |
| 2026-05-07 15:00 | 34.09857 | 130.78672 | 15975 ft | 336 kts | 242° |
| 2026-05-07 15:01 | 34.08739 | 130.76250 | 15489 ft | 334 kts | 242° |
| 2026-05-07 15:01 | 34.07617 | 130.73809 | 14995 ft | 332 kts | 242° |
| 2026-05-07 15:01 | 34.06504 | 130.71377 | 14500 ft | 331 kts | 242° |
| 2026-05-07 15:01 | 34.05398 | 130.68950 | 14030 ft | 329 kts | 242° |
| 2026-05-07 15:02 | 34.04301 | 130.66534 | 13532 ft | 327 kts | 242° |
| 2026-05-07 15:02 | 34.03216 | 130.64130 | 13005 ft | 326 kts | 242° |
| 2026-05-07 15:02 | 34.02139 | 130.61739 | 12479 ft | 323 kts | 242° |
| 2026-05-07 15:02 | 34.01190 | 130.59625 | 12022 ft | 322 kts | 242° |
| 2026-05-07 15:03 | 34.00146 | 130.57290 | 11514 ft | 320 kts | 242° |
| 2026-05-07 15:03 | 33.99099 | 130.54939 | 11032 ft | 318 kts | 242° |
| 2026-05-07 15:03 | 33.98060 | 130.52597 | 10536 ft | 316 kts | 242° |
| 2026-05-07 15:03 | 33.97044 | 130.50294 | 10310 ft | 306 kts | 242° |
| 2026-05-07 15:04 | 33.96079 | 130.48098 | 10183 ft | 284 kts | 242° |
| 2026-05-07 15:04 | 33.95178 | 130.46038 | 9997 ft | 274 kts | 242° |
| 2026-05-07 15:04 | 33.94299 | 130.44025 | 9703 ft | 270 kts | 242° |
| 2026-05-07 15:04 | 33.93430 | 130.42030 | 9386 ft | 266 kts | 242° |
| 2026-05-07 15:05 | 33.92600 | 130.40119 | 9176 ft | 258 kts | 242° |
| 2026-05-07 15:05 | 33.91780 | 130.38228 | 8612 ft | 254 kts | 242° |
| 2026-05-07 15:05 | 33.90967 | 130.36350 | 7987 ft | 252 kts | 242° |
| 2026-05-07 15:05 | 33.90161 | 130.34484 | 7365 ft | 250 kts | 242° |
| 2026-05-07 15:06 | 33.89362 | 130.32629 | 6756 ft | 249 kts | 242° |
| 2026-05-07 15:06 | 33.88568 | 130.30784 | 6139 ft | 247 kts | 242° |
| 2026-05-07 15:06 | 33.87784 | 130.28953 | 5510 ft | 245 kts | 241° |
| 2026-05-07 15:06 | 33.87021 | 130.27129 | 4865 ft | 244 kts | 242° |
| 2026-05-07 15:07 | 33.86263 | 130.25295 | 4209 ft | 246 kts | 242° |
| 2026-05-07 15:07 | 33.85511 | 130.23466 | 3801 ft | 240 kts | 242° |
| 2026-05-07 15:07 | 33.84781 | 130.21680 | 3216 ft | 237 kts | 242° |
| 2026-05-07 15:07 | 33.84050 | 130.19927 | 2812 ft | 237 kts | 242° |
| 2026-05-07 15:08 | 33.83225 | 130.18224 | 2435 ft | 234 kts | 228° |
| 2026-05-07 15:08 | 33.81886 | 130.17218 | 2271 ft | 226 kts | 195° |
| 2026-05-07 15:08 | 33.80355 | 130.17279 | 2122 ft | 223 kts | 162° |
| 2026-05-07 15:08 | 33.78950 | 130.18117 | 2026 ft | 227 kts | 153° |
| 2026-05-07 15:09 | 33.77593 | 130.19088 | 2017 ft | 227 kts | 152° |
| 2026-05-07 15:09 | 33.76243 | 130.20080 | 2020 ft | 228 kts | 152° |
| 2026-05-07 15:09 | 33.74888 | 130.21077 | 2015 ft | 228 kts | 152° |
| 2026-05-07 15:09 | 33.73542 | 130.22063 | 2009 ft | 228 kts | 152° |
| 2026-05-07 15:10 | 33.72185 | 130.23053 | 2010 ft | 228 kts | 152° |
| 2026-05-07 15:10 | 33.70829 | 130.24053 | 2010 ft | 229 kts | 152° |
| 2026-05-07 15:10 | 33.69491 | 130.25039 | 2014 ft | 233 kts | 152° |
| 2026-05-07 15:10 | 33.68050 | 130.26089 | 2005 ft | 247 kts | 151° |
| 2026-05-07 15:11 | 33.66564 | 130.27150 | 2007 ft | 249 kts | 152° |
| 2026-05-07 15:11 | 33.65067 | 130.28204 | 2006 ft | 249 kts | 152° |
| 2026-05-07 15:11 | 33.63572 | 130.29254 | 2009 ft | 249 kts | 152° |
| 2026-05-07 15:11 | 33.62078 | 130.30312 | 2008 ft | 250 kts | 152° |
| 2026-05-07 15:12 | 33.60590 | 130.31378 | 2007 ft | 249 kts | 151° |
| 2026-05-07 15:12 | 33.59105 | 130.32426 | 2009 ft | 249 kts | 152° |
| 2026-05-07 15:12 | 33.57609 | 130.33471 | 2008 ft | 249 kts | 152° |
| 2026-05-07 15:12 | 33.56126 | 130.34510 | 2005 ft | 248 kts | 151° |
| 2026-05-07 15:13 | 33.54632 | 130.35566 | 2009 ft | 249 kts | 152° |
| 2026-05-07 15:13 | 33.53229 | 130.36627 | 2003 ft | 225 kts | 146° |
| 2026-05-07 15:13 | 33.52013 | 130.37721 | 1999 ft | 215 kts | 146° |
| 2026-05-07 15:13 | 33.50872 | 130.38781 | 2015 ft | 202 kts | 145° |
| 2026-05-07 15:14 | 33.49781 | 130.39810 | 2010 ft | 197 kts | 145° |
| 2026-05-07 15:14 | 33.48794 | 130.40761 | 2019 ft | 173 kts | 145° |
| 2026-05-07 15:14 | 33.47933 | 130.41654 | 2016 ft | 158 kts | 136° |
| 2026-05-07 15:14 | 33.47313 | 130.42688 | 2015 ft | 151 kts | 124° |
| 2026-05-07 15:15 | 33.46981 | 130.43853 | 2005 ft | 149 kts | 98° |
| 2026-05-07 15:15 | 33.46941 | 130.45113 | 2003 ft | 153 kts | 87° |
| 2026-05-07 15:15 | 33.47077 | 130.46374 | 2009 ft | 152 kts | 76° |
| 2026-05-07 15:15 | 33.47426 | 130.47568 | 2008 ft | 153 kts | 65° |
| 2026-05-07 15:16 | 33.47917 | 130.48724 | 1834 ft | 157 kts | 61° |
| 2026-05-07 15:16 | 33.48538 | 130.49778 | 1611 ft | 154 kts | 46° |
| 2026-05-07 15:16 | 33.49383 | 130.50502 | 1345 ft | 150 kts | 15° |
| 2026-05-07 15:16 | 33.50369 | 130.50564 | 1266 ft | 142 kts | 341° |
| 2026-05-07 15:17 | 33.51243 | 130.50074 | 1280 ft | 138 kts | 324° |
| 2026-05-07 15:17 | 33.52085 | 130.49500 | 1189 ft | 139 kts | 325° |
| 2026-05-07 15:17 | 33.52934 | 130.48928 | 1059 ft | 139 kts | 328° |
| 2026-05-07 15:17 | 33.53768 | 130.48362 | 907 ft | 138 kts | 329° |
| 2026-05-07 15:18 | 33.54599 | 130.47796 | 734 ft | 136 kts | 329° |
| 2026-05-07 15:18 | 33.55408 | 130.47248 | 582 ft | 130 kts | 327° |
| 2026-05-07 15:18 | 33.56195 | 130.46705 | 340 ft | 131 kts | 329° |
| 2026-05-07 15:18 | 33.56964 | 130.46181 | 179 ft | 128 kts | 329° |
| 2026-05-07 15:19 | 33.57721 | 130.45662 | 47 ft | 123 kts | 329° |
| 2026-05-07 15:19 | 33.58329 | 130.45243 | 37 ft | 77 kts | 331° |
| 2026-05-07 15:19 | 33.58655 | 130.45025 | 36 ft | 36 kts | 329° |
| 2026-05-07 15:19 | 33.58822 | 130.44871 | 34 ft | 25 kts | 307° |
| 2026-05-07 15:20 | 33.58896 | 130.44732 | 30 ft | 19 kts | 300° |
| 2026-05-07 15:20 | 33.58950 | 130.44617 | 29 ft | 14 kts | 290° |
| 2026-05-07 15:20 | 33.58934 | 130.44511 | 31 ft | 9 kts | 240° |
| 2026-05-07 15:20 | 33.58895 | 130.44486 | 32 ft | 6 kts | 169° |
| 2026-05-07 15:21 | 33.58861 | 130.44501 | 32 ft | 5 kts | 157° |
| 2026-05-07 15:21 | 33.58836 | 130.44519 | 32 ft | 4 kts | 149° |
| 2026-05-07 15:21 | 33.58807 | 130.44539 | 33 ft | 6 kts | 150° |
| 2026-05-07 15:21 | 33.58772 | 130.44562 | 32 ft | 5 kts | 151° |
| 2026-05-07 15:22 | 33.58751 | 130.44576 | 34 ft | 2 kts | 151° |
| 2026-05-07 15:22 | 33.58739 | 130.44584 | 34 ft | 3 kts | 151° |
| 2026-05-07 15:22 | 33.58710 | 130.44603 | 35 ft | 6 kts | 151° |
| 2026-05-07 15:22 | 33.58685 | 130.44620 | 36 ft | 3 kts | 151° |
| 2026-05-07 15:23 | 33.58677 | 130.44625 | 34 ft | 0 kts | 151° |
| 2026-05-07 15:23 | 33.58651 | 130.44637 | 37 ft | 6 kts | 178° |
| 2026-05-07 15:23 | 33.58618 | 130.44604 | 35 ft | 7 kts | 235° |
| 2026-05-07 15:23 | 33.58594 | 130.44552 | 35 ft | 6 kts | 241° |
| 2026-05-07 15:24 | 33.58583 | 130.44529 | 34 ft | 4 kts | 241° |
| 2026-05-07 15:24 | 33.58572 | 130.44505 | 33 ft | 0 kts | 240° |